Time,TemperatureF,DewpointF,PressureIn,WindDirection,WindDirectionDegrees,WindSpeedMPH,WindSpeedGustMPH,Humidity,HourlyPrecipIn,Conditions,Clouds,dailyrainin,SoftwareType,DateUTC
2013-03-05 00:00:00,66.0,63.0,-100.00,South,170,27.0,-999.0,89,0.00,,,-99.99,,2013-03-05 06:00:00,
2013-03-05 00:22:00,66.0,63.0,-100.00,South,170,27.0,-999.0,89,0.00,,,-99.99,,2013-03-05 06:22:00,
2013-03-05 00:32:00,66.0,63.0,-100.00,South,170,27.0,-999.0,89,0.00,,,-99.99,,2013-03-05 06:32:00,
2013-03-05 00:42:00,66.0,63.0,-100.00,South,170,27.0,-999.0,89,0.00,,,-99.99,,2013-03-05 06:42:00,
2013-03-05 00:52:00,66.0,63.0,-100.00,South,170,27.0,-999.0,89,0.00,,,-99.99,,2013-03-05 06:52:00,
2013-03-05 01:00:00,66.0,63.0,-100.00,South,174,22.0,-999.0,90,0.00,,,-99.99,,2013-03-05 07:00:00,
2013-03-05 01:22:00,66.0,63.0,-100.00,South,174,22.0,-999.0,90,0.00,,,-99.99,,2013-03-05 07:22:00,
2013-03-05 01:31:00,66.0,63.0,-100.00,South,174,22.0,-999.0,90,0.00,,,-99.99,,2013-03-05 07:31:00,
2013-03-05 01:41:00,66.0,63.0,-100.00,South,174,22.0,-999.0,90,0.00,,,-99.99,,2013-03-05 07:41:00,
2013-03-05 01:52:00,66.0,63.0,-100.00,South,174,22.0,-999.0,90,0.00,,,-99.99,,2013-03-05 07:52:00,
2013-03-05 02:00:00,66.0,63.0,-100.00,South,174,19.0,-999.0,90,0.00,,,-99.99,,2013-03-05 08:00:00,
2013-03-05 02:21:00,66.0,63.0,-100.00,South,174,19.0,-999.0,90,0.00,,,-99.99,,2013-03-05 08:21:00,
2013-03-05 02:31:00,66.0,63.0,-100.00,South,174,19.0,-999.0,90,0.00,,,-99.99,,2013-03-05 08:31:00,
2013-03-05 02:41:00,66.0,63.0,-100.00,South,174,19.0,-999.0,90,0.00,,,-99.99,,2013-03-05 08:41:00,
2013-03-05 02:52:00,66.0,63.0,-100.00,South,174,19.0,-999.0,90,0.00,,,-99.99,,2013-03-05 08:52:00,
2013-03-05 03:00:00,66.0,63.0,-100.00,South,176,17.0,-999.0,90,0.00,,,-99.99,,2013-03-05 09:00:00,
2013-03-05 03:21:00,66.0,63.0,-100.00,South,176,17.0,-999.0,90,0.00,,,-99.99,,2013-03-05 09:21:00,
2013-03-05 03:31:00,66.0,63.0,-100.00,South,176,17.0,-999.0,90,0.00,,,-99.99,,2013-03-05 09:31:00,
2013-03-05 03:42:00,66.0,63.0,-100.00,South,176,17.0,-999.0,90,0.00,,,-99.99,,2013-03-05 09:42:00,
2013-03-05 03:52:00,66.0,63.0,-100.00,South,176,17.0,-999.0,90,0.00,,,-99.99,,2013-03-05 09:52:00,
2013-03-05 04:00:00,65.0,62.0,-100.00,SSE,163,19.0,-999.0,91,0.00,,,-99.99,,2013-03-05 10:00:00,
2013-03-05 04:21:00,65.0,62.0,-100.00,SSE,163,19.0,-999.0,91,0.00,,,-99.99,,2013-03-05 10:21:00,
2013-03-05 04:32:00,65.0,62.0,-100.00,SSE,163,19.0,-999.0,91,0.00,,,-99.99,,2013-03-05 10:32:00,
2013-03-05 04:42:00,65.0,62.0,-100.00,SSE,163,19.0,-999.0,91,0.00,,,-99.99,,2013-03-05 10:42:00,
2013-03-05 04:52:00,65.0,62.0,-100.00,SSE,163,19.0,-999.0,91,0.00,,,-99.99,,2013-03-05 10:52:00,
2013-03-05 05:00:00,65.0,63.0,-100.00,South,177,14.0,-999.0,92,0.00,,,-99.99,,2013-03-05 11:00:00,
2013-03-05 05:22:00,65.0,63.0,-100.00,South,177,14.0,-999.0,92,0.00,,,-99.99,,2013-03-05 11:22:00,
2013-03-05 05:32:00,65.0,63.0,-100.00,South,177,14.0,-999.0,92,0.00,,,-99.99,,2013-03-05 11:32:00,
2013-03-05 05:42:00,65.0,63.0,-100.00,South,177,14.0,-999.0,92,0.00,,,-99.99,,2013-03-05 11:42:00,
2013-03-05 05:52:00,65.0,63.0,-100.00,South,177,14.0,-999.0,92,0.00,,,-99.99,,2013-03-05 11:52:00,
2013-03-05 06:00:00,65.0,63.0,-100.00,South,179,13.0,-999.0,93,0.00,,,-99.99,,2013-03-05 12:00:00,
2013-03-05 06:22:00,65.0,63.0,-100.00,South,179,13.0,-999.0,93,0.00,,,-99.99,,2013-03-05 12:22:00,
2013-03-05 06:32:00,65.0,63.0,-100.00,South,179,13.0,-999.0,93,0.00,,,-99.99,,2013-03-05 12:32:00,
2013-03-05 06:42:00,65.0,63.0,-100.00,South,179,13.0,-999.0,93,0.00,,,-99.99,,2013-03-05 12:42:00,
2013-03-05 06:52:00,65.0,63.0,-100.00,South,179,13.0,-999.0,93,0.00,,,-99.99,,2013-03-05 12:52:00,
2013-03-05 07:00:00,65.0,61.0,-100.00,NNW,347,14.0,-999.0,88,0.00,,,-99.99,,2013-03-05 13:00:00,
2013-03-05 07:22:00,65.0,61.0,-100.00,NNW,347,14.0,-999.0,88,0.00,,,-99.99,,2013-03-05 13:22:00,
2013-03-05 07:32:00,65.0,61.0,-100.00,NNW,347,14.0,-999.0,88,0.00,,,-99.99,,2013-03-05 13:32:00,
2013-03-05 07:42:00,65.0,61.0,-100.00,NNW,347,14.0,-999.0,88,0.00,,,-99.99,,2013-03-05 13:42:00,
2013-03-05 07:52:00,65.0,61.0,-100.00,NNW,347,14.0,-999.0,88,0.00,,,-99.99,,2013-03-05 13:52:00,
2013-03-05 08:00:00,65.0,62.0,-100.00,NNE,24,9.0,-999.0,89,0.00,,,-99.99,,2013-03-05 14:00:00,
2013-03-05 08:22:00,65.0,62.0,-100.00,NNE,24,9.0,-999.0,89,0.00,,,-99.99,,2013-03-05 14:22:00,
2013-03-05 08:32:00,65.0,62.0,-100.00,NNE,24,9.0,-999.0,89,0.00,,,-99.99,,2013-03-05 14:32:00,
2013-03-05 08:42:00,65.0,62.0,-100.00,NNE,24,9.0,-999.0,89,0.00,,,-99.99,,2013-03-05 14:42:00,
2013-03-05 08:52:00,65.0,62.0,-100.00,NNE,24,9.0,-999.0,89,0.00,,,-99.99,,2013-03-05 14:52:00,
2013-03-05 09:00:00,58.0,48.0,-100.00,North,360,27.0,-999.0,68,0.00,,,-99.99,,2013-03-05 15:00:00,
2013-03-05 09:21:00,58.0,48.0,-100.00,North,360,27.0,-999.0,68,0.00,,,-99.99,,2013-03-05 15:21:00,
2013-03-05 09:32:00,58.0,48.0,-100.00,North,360,27.0,-999.0,68,0.00,,,-99.99,,2013-03-05 15:32:00,
2013-03-05 09:42:00,58.0,48.0,-100.00,North,360,27.0,-999.0,68,0.00,,,-99.99,,2013-03-05 15:42:00,
2013-03-05 09:52:00,58.0,48.0,-100.00,North,360,27.0,-999.0,68,0.00,,,-99.99,,2013-03-05 15:52:00,
2013-03-05 10:00:00,57.0,45.0,-100.00,North,5,32.0,-999.0,63,0.00,,,-99.99,,2013-03-05 16:00:00,
2013-03-05 10:21:00,57.0,45.0,-100.00,North,5,32.0,-999.0,63,0.00,,,-99.99,,2013-03-05 16:21:00,
2013-03-05 10:32:00,57.0,45.0,-100.00,North,5,32.0,-999.0,63,0.00,,,-99.99,,2013-03-05 16:32:00,
2013-03-05 10:42:00,57.0,45.0,-100.00,North,5,32.0,-999.0,63,0.00,,,-99.99,,2013-03-05 16:42:00,
2013-03-05 10:52:00,57.0,45.0,-100.00,North,5,32.0,-999.0,63,0.00,,,-99.99,,2013-03-05 16:52:00,
2013-03-05 11:00:00,60.0,45.0,-100.00,North,8,27.0,-999.0,58,0.00,,,-99.99,,2013-03-05 17:00:00,
2013-03-05 11:21:00,60.0,45.0,-100.00,North,8,27.0,-999.0,58,0.00,,,-99.99,,2013-03-05 17:21:00,
2013-03-05 11:32:00,60.0,45.0,-100.00,North,8,27.0,-999.0,58,0.00,,,-99.99,,2013-03-05 17:32:00,
2013-03-05 11:42:00,60.0,45.0,-100.00,North,8,27.0,-999.0,58,0.00,,,-99.99,,2013-03-05 17:42:00,
2013-03-05 11:52:00,60.0,45.0,-100.00,North,8,27.0,-999.0,58,0.00,,,-99.99,,2013-03-05 17:52:00,
2013-03-05 12:00:00,63.0,44.0,-100.00,North,2,25.0,-999.0,49,0.00,,,-99.99,,2013-03-05 18:00:00,
2013-03-05 12:22:00,63.0,44.0,-100.00,North,2,25.0,-999.0,49,0.00,,,-99.99,,2013-03-05 18:22:00,
2013-03-05 12:32:00,63.0,44.0,-100.00,North,2,25.0,-999.0,49,0.00,,,-99.99,,2013-03-05 18:32:00,
2013-03-05 12:42:00,63.0,44.0,-100.00,North,2,25.0,-999.0,49,0.00,,,-99.99,,2013-03-05 18:42:00,
2013-03-05 12:53:00,63.0,44.0,-100.00,North,2,25.0,-999.0,49,0.00,,,-99.99,,2013-03-05 18:53:00,
2013-03-05 13:00:00,64.0,42.0,-100.00,North,358,24.0,-999.0,44,0.00,,,-99.99,,2013-03-05 19:00:00,
2013-03-05 13:21:00,64.0,42.0,-100.00,North,358,24.0,-999.0,44,0.00,,,-99.99,,2013-03-05 19:21:00,
2013-03-05 13:32:00,64.0,42.0,-100.00,North,358,24.0,-999.0,44,0.00,,,-99.99,,2013-03-05 19:32:00,
2013-03-05 13:42:00,64.0,42.0,-100.00,North,358,24.0,-999.0,44,0.00,,,-99.99,,2013-03-05 19:42:00,
2013-03-05 13:52:00,64.0,42.0,-100.00,North,358,24.0,-999.0,44,0.00,,,-99.99,,2013-03-05 19:52:00,
2013-03-05 14:00:00,65.0,40.0,-100.00,North,353,23.0,-999.0,41,0.00,,,-99.99,,2013-03-05 20:00:00,
2013-03-05 14:22:00,65.0,40.0,-100.00,North,353,23.0,-999.0,41,0.00,,,-99.99,,2013-03-05 20:22:00,
2013-03-05 14:32:00,65.0,40.0,-100.00,North,353,23.0,-999.0,41,0.00,,,-99.99,,2013-03-05 20:32:00,
2013-03-05 14:42:00,65.0,40.0,-100.00,North,353,23.0,-999.0,41,0.00,,,-99.99,,2013-03-05 20:42:00,
2013-03-05 14:52:00,65.0,40.0,-100.00,North,353,23.0,-999.0,41,0.00,,,-99.99,,2013-03-05 20:52:00,
2013-03-05 15:00:00,65.0,37.0,-100.00,NNW,346,22.0,-999.0,36,0.00,,,-99.99,,2013-03-05 21:00:00,
2013-03-05 15:21:00,65.0,37.0,-100.00,NNW,346,22.0,-999.0,36,0.00,,,-99.99,,2013-03-05 21:21:00,
2013-03-05 15:32:00,65.0,37.0,-100.00,NNW,346,22.0,-999.0,36,0.00,,,-99.99,,2013-03-05 21:32:00,
2013-03-05 15:42:00,65.0,37.0,-100.00,NNW,346,22.0,-999.0,36,0.00,,,-99.99,,2013-03-05 21:42:00,
2013-03-05 15:52:00,65.0,37.0,-100.00,NNW,346,22.0,-999.0,36,0.00,,,-99.99,,2013-03-05 21:52:00,
2013-03-05 16:00:00,66.0,34.0,-100.00,North,352,22.0,-999.0,31,0.00,,,-99.99,,2013-03-05 22:00:00,
2013-03-05 16:22:00,66.0,34.0,-100.00,North,352,22.0,-999.0,31,0.00,,,-99.99,,2013-03-05 22:22:00,
2013-03-05 16:32:00,66.0,34.0,-100.00,North,352,22.0,-999.0,31,0.00,,,-99.99,,2013-03-05 22:32:00,
2013-03-05 16:42:00,66.0,34.0,-100.00,North,352,22.0,-999.0,31,0.00,,,-99.99,,2013-03-05 22:42:00,
2013-03-05 16:52:00,66.0,34.0,-100.00,North,352,22.0,-999.0,31,0.00,,,-99.99,,2013-03-05 22:52:00,
2013-03-05 17:00:00,66.0,33.0,-100.00,North,354,21.0,-999.0,29,0.00,,,-99.99,,2013-03-05 23:00:00,
2013-03-05 17:21:00,66.0,33.0,-100.00,North,354,21.0,-999.0,29,0.00,,,-99.99,,2013-03-05 23:21:00,
2013-03-05 17:32:00,66.0,33.0,-100.00,North,354,21.0,-999.0,29,0.00,,,-99.99,,2013-03-05 23:32:00,
2013-03-05 17:42:00,66.0,33.0,-100.00,North,354,21.0,-999.0,29,0.00,,,-99.99,,2013-03-05 23:42:00,
2013-03-05 17:53:00,66.0,33.0,-100.00,North,354,21.0,-999.0,29,0.00,,,-99.99,,2013-03-05 23:53:00,
2013-03-05 18:00:00,66.0,34.0,-100.00,North,351,20.0,-999.0,30,0.00,,,-99.99,,2013-03-06 00:00:00,
2013-03-05 18:21:00,66.0,34.0,-100.00,North,351,20.0,-999.0,30,0.00,,,-99.99,,2013-03-06 00:21:00,
2013-03-05 18:32:00,66.0,34.0,-100.00,North,351,20.0,-999.0,30,0.00,,,-99.99,,2013-03-06 00:32:00,
2013-03-05 18:42:00,66.0,34.0,-100.00,North,351,20.0,-999.0,30,0.00,,,-99.99,,2013-03-06 00:42:00,
2013-03-05 18:52:00,66.0,34.0,-100.00,North,351,20.0,-999.0,30,0.00,,,-99.99,,2013-03-06 00:52:00,
2013-03-05 19:00:00,64.0,36.0,-100.00,North,350,11.0,-999.0,36,0.00,,,-99.99,,2013-03-06 01:00:00,
2013-03-05 19:21:00,64.0,36.0,-100.00,North,350,11.0,-999.0,36,0.00,,,-99.99,,2013-03-06 01:21:00,
2013-03-05 19:32:00,64.0,36.0,-100.00,North,350,11.0,-999.0,36,0.00,,,-99.99,,2013-03-06 01:32:00,
2013-03-05 19:42:00,64.0,36.0,-100.00,North,350,11.0,-999.0,36,0.00,,,-99.99,,2013-03-06 01:42:00,
2013-03-05 19:52:00,64.0,36.0,-100.00,North,350,11.0,-999.0,36,0.00,,,-99.99,,2013-03-06 01:52:00,
2013-03-05 20:00:00,61.0,34.0,-100.00,North,358,15.0,-999.0,36,0.00,,,-99.99,,2013-03-06 02:00:00,
2013-03-05 20:22:00,61.0,34.0,-100.00,North,358,15.0,-999.0,36,0.00,,,-99.99,,2013-03-06 02:22:00,
2013-03-05 20:32:00,61.0,34.0,-100.00,North,358,15.0,-999.0,36,0.00,,,-99.99,,2013-03-06 02:32:00,
2013-03-05 20:42:00,61.0,34.0,-100.00,North,358,15.0,-999.0,36,0.00,,,-99.99,,2013-03-06 02:42:00,
2013-03-05 20:52:00,61.0,34.0,-100.00,North,358,15.0,-999.0,36,0.00,,,-99.99,,2013-03-06 02:52:00,
2013-03-05 21:00:00,60.0,33.0,-100.00,North,356,15.0,-999.0,36,0.00,,,-99.99,,2013-03-06 03:00:00,
2013-03-05 21:22:00,60.0,33.0,-100.00,North,356,15.0,-999.0,36,0.00,,,-99.99,,2013-03-06 03:22:00,
2013-03-05 21:32:00,60.0,33.0,-100.00,North,356,15.0,-999.0,36,0.00,,,-99.99,,2013-03-06 03:32:00,
2013-03-05 21:42:00,60.0,33.0,-100.00,North,356,15.0,-999.0,36,0.00,,,-99.99,,2013-03-06 03:42:00,
2013-03-05 21:52:00,60.0,33.0,-100.00,North,356,15.0,-999.0,36,0.00,,,-99.99,,2013-03-06 03:52:00,
2013-03-05 22:00:00,58.0,33.0,-100.00,North,2,12.0,-999.0,39,0.00,,,-99.99,,2013-03-06 04:00:00,
2013-03-05 22:22:00,58.0,33.0,-100.00,North,2,12.0,-999.0,39,0.00,,,-99.99,,2013-03-06 04:22:00,
2013-03-05 22:32:00,58.0,33.0,-100.00,North,2,12.0,-999.0,39,0.00,,,-99.99,,2013-03-06 04:32:00,
2013-03-05 22:42:00,58.0,33.0,-100.00,North,2,12.0,-999.0,39,0.00,,,-99.99,,2013-03-06 04:42:00,
2013-03-05 22:52:00,58.0,33.0,-100.00,North,2,12.0,-999.0,39,0.00,,,-99.99,,2013-03-06 04:52:00,
2013-03-05 23:00:00,56.0,32.0,-100.00,NNE,18,12.0,-999.0,40,0.00,,,-99.99,,2013-03-06 05:00:00,
2013-03-05 23:22:00,56.0,32.0,-100.00,NNE,18,12.0,-999.0,40,0.00,,,-99.99,,2013-03-06 05:22:00,
2013-03-05 23:32:00,56.0,32.0,-100.00,NNE,18,12.0,-999.0,40,0.00,,,-99.99,,2013-03-06 05:32:00,
2013-03-05 23:42:00,56.0,32.0,-100.00,NNE,18,12.0,-999.0,40,0.00,,,-99.99,,2013-03-06 05:42:00,
2013-03-05 23:52:00,56.0,32.0,-100.00,NNE,18,12.0,-999.0,40,0.00,,,-99.99,,2013-03-06 05:52:00,